Date,TemperatureHighF,TemperatureAvgF,TemperatureLowF,DewpointHighF,DewpointAvgF,DewpointLowF,HumidityHigh,HumidityAvg,HumidityLow,PressureMaxIn,PressureMinIn,WindSpeedMaxMPH,WindSpeedAvgMPH,GustSpeedMaxMPH,PrecipitationSumIn
2013-1-1,40.4,37.3,28.7,31.9,29.1,18.8,78,72,63,29.99,29.81,16,2,20,0.00
2013-1-2,32.9,28.1,24.1,20.5,17.9,15.9,74,65,56,30.17,29.95,17,1,19,0.00
2013-1-3,32.9,28.0,21.1,21.9,18.7,16.1,83,68,55,30.17,30.06,13,1,15,0.00
2013-1-4,37.4,34.0,28.8,25.7,23.7,21.0,73,65,60,30.08,29.95,25,4,25,0.00
2013-1-5,40.7,33.8,28.9,26.2,23.7,21.3,81,67,54,30.29,30.02,18,2,21,0.00
2013-1-6,46.6,38.7,32.3,34.9,30.3,25.8,94,73,50,30.19,29.95,16,0,16,0.01
2013-1-7,45.6,38.6,30.5,33.3,29.2,25.7,84,69,50,30.36,30.04,15,1,15,0.00
2013-1-8,48.3,35.0,23.9,35.4,28.8,21.0,93,79,59,30.37,30.30,12,0,12,0.01
2013-1-9,49.4,38.8,26.2,40.2,33.8,24.3,95,83,67,30.35,30.12,13,1,16,0.00
2013-1-10,48.7,42.0,33.6,34.6,29.8,27.6,79,62,49,30.49,30.25,15,2,18,0.00
2013-1-11,45.2,39.6,30.8,43.4,35.3,26.8,96,84,74,30.48,30.04,4,0,4,0.51
2013-1-12,50.0,44.9,42.5,47.9,43.6,41.7,97,95,90,30.12,30.04,6,0,6,0.00
2013-1-13,48.7,46.0,42.9,48.2,45.1,41.9,98,97,96,30.10,29.94,9,0,9,0.02
2013-1-14,54.4,49.8,40.0,52.9,46.0,36.6,98,88,62,30.24,29.87,11,1,13,0.11
2013-1-15,40.0,37.2,34.7,37.4,32.2,30.2,93,82,73,30.30,30.15,13,0,13,0.16
2013-1-16,37.2,34.7,32.9,35.7,33.4,31.4,96,95,89,30.16,29.76,18,0,18,0.85
2013-1-17,42.1,39.1,36.8,36.1,32.0,29.7,94,76,64,30.06,29.89,17,1,18,0.00
2013-1-18,36.7,30.1,25.9,30.9,18.2,10.9,85,62,44,30.44,29.95,18,2,20,0.00
2013-1-19,50.5,39.6,26.8,32.6,27.8,15.9,81,63,47,30.37,29.89,18,3,18,0.00
2013-1-20,53.7,42.5,29.9,35.8,26.7,13.8,94,55,30,30.01,29.69,28,6,31,0.00
2013-1-21,32.1,27.9,21.1,26.0,16.2,13.0,92,62,49,30.06,29.82,17,1,17,0.00
2013-1-22,25.3,18.5,13.2,14.3,3.0,-2.2,64,50,40,30.22,29.83,27,9,27,0.00
2013-1-23,19.7,14.2,9.1,7.4,2.8,-1.1,85,61,48,30.25,30.14,19,4,19,0.00
2013-1-24,24.9,18.1,10.9,10.2,5.9,1.1,87,61,36,30.41,30.08,23,2,29,0.00
2013-1-25,23.0,16.6,7.3,16.3,6.8,1.2,89,66,48,30.42,30.04,17,1,17,0.00
2013-1-26,27.0,19.0,6.3,14.1,10.9,3.3,92,72,53,30.36,30.02,17,2,17,0.01
2013-1-27,33.9,22.9,10.3,19.3,14.0,5.9,85,69,51,30.52,30.36,14,1,15,0.00
2013-1-28,36.0,30.9,19.8,34.7,27.9,15.2,95,89,74,30.47,29.98,16,1,17,0.20
2013-1-29,49.5,43.7,35.5,45.8,41.4,34.2,96,92,86,30.10,29.97,7,0,8,0.01
2013-1-30,66.8,54.0,42.2,60.2,51.7,41.1,98,92,79,29.99,29.28,26,3,32,0.32
2013-1-31,61.1,42.0,28.8,59.2,30.2,13.9,96,64,45,29.79,29.03,33,10,36,0.89
2013-2-1,30.5,27.3,21.8,20.2,12.3,7.1,75,53,40,30.24,29.78,26,5,27,0.00
2013-2-2,28.8,23.5,17.0,22.6,12.3,7.2,91,63,43,30.28,30.00,19,2,21,0.00
2013-2-3,30.5,25.9,21.3,25.7,22.1,18.7,94,85,72,29.99,29.77,17,0,17,0.04
2013-2-4,30.2,25.7,21.1,22.4,14.6,12.1,82,63,50,29.99,29.82,22,5,23,0.00
2013-2-5,32.4,30.0,27.2,29.6,26.7,22.4,93,87,82,29.92,29.84,1,0,1,0.00
2013-2-6,38.7,31.8,24.3,29.7,24.8,17.2,100,76,56,30.31,29.88,17,2,19,0.01
2013-2-7,34.6,27.8,19.2,23.2,18.7,15.6,94,69,53,30.45,30.24,9,0,10,0.00
2013-2-8,36.0,33.6,31.2,33.7,30.9,23.5,100,90,73,30.24,29.64,17,3,19,0.20
2013-2-9,32.9,28.0,21.4,31.5,19.4,11.3,96,71,50,30.34,29.73,28,7,28,0.08
2013-2-10,39.2,27.9,15.5,23.1,15.5,10.1,81,61,40,30.45,30.26,8,0,10,0.02
2013-2-11,48.2,39.0,31.0,47.4,36.7,23.1,97,91,70,30.27,29.62,18,1,20,0.31
2013-2-12,44.8,40.3,30.4,40.4,28.4,24.0,92,63,52,29.94,29.72,26,5,30,0.00
2013-2-13,43.7,34.2,22.8,32.1,27.6,20.3,94,78,58,29.92,29.63,7,0,7,0.00
2013-2-14,45.8,37.1,29.2,34.4,31.1,26.6,96,80,57,29.97,29.68,11,0,11,0.18
2013-2-15,56.2,42.8,30.0,38.2,33.1,26.1,93,71,47,29.98,29.87,15,1,16,0.04
2013-2-16,37.3,34.9,31.9,33.8,29.7,19.6,95,82,60,29.94,29.78,13,1,17,0.04
2013-2-17,31.1,27.1,20.7,15.3,9.5,3.8,54,47,40,30.03,29.69,33,9,33,0.00
2013-2-18,35.4,26.8,18.9,15.9,10.7,4.6,61,51,40,30.27,30.03,24,5,25,0.00
2013-2-19,44.7,36.3,24.1,42.2,30.2,16.2,94,79,56,30.15,29.66,22,2,22,0.30
2013-2-20,35.9,29.5,25.1,27.3,16.6,12.5,71,58,49,30.00,29.73,27,9,29,0.00
2013-2-21,35.2,28.7,24.2,18.9,16.4,12.9,69,60,50,30.27,29.99,24,6,25,0.00
2013-2-22,37.5,30.7,22.7,30.2,23.0,15.8,85,73,63,30.36,30.20,11,0,14,0.00
2013-2-23,44.9,38.8,33.2,43.8,37.4,30.1,96,95,85,30.22,29.76,12,1,12,0.14
2013-2-24,45.7,38.2,31.7,40.1,32.0,22.7,96,79,59,29.98,29.73,24,3,24,0.01
2013-2-25,45.2,35.9,27.8,31.6,26.5,21.9,86,69,53,30.19,29.98,17,1,17,0.00
2013-2-26,44.7,34.9,23.7,35.9,29.9,21.5,94,83,63,30.21,29.76,17,1,21,0.36
2013-2-27,50.6,44.2,37.5,46.0,40.4,35.9,96,87,72,29.76,29.46,24,3,28,0.23
2013-2-28,46.4,42.1,35.7,37.3,33.8,28.0,85,73,53,29.61,29.52,16,2,17,0.00
2013-3-1,44.2,38.5,32.3,33.3,30.2,27.2,89,73,55,29.77,29.59,17,2,18,0.00
2013-3-2,39.6,35.0,31.0,27.2,24.9,21.7,73,66,58,29.77,29.68,18,3,19,0.00
2013-3-3,37.1,31.9,26.7,23.4,20.8,18.8,73,64,53,29.77,29.68,21,4,22,0.00
2013-3-4,40.6,33.9,29.2,24.5,21.3,17.7,70,60,49,29.91,29.77,30,7,31,0.00
2013-3-5,47.1,38.1,31.6,30.0,26.8,23.5,81,64,49,29.99,29.89,18,1,19,0.00
2013-3-6,40.7,37.6,32.8,36.4,33.2,27.7,92,84,73,29.90,29.73,26,4,28,0.09
2013-3-7,46.7,39.4,34.8,33.7,30.1,27.4,87,69,54,30.05,29.89,21,2,21,0.00
2013-3-8,43.2,35.4,30.2,34.5,30.2,26.6,100,82,65,30.19,30.00,19,3,21,0.16
2013-3-9,59.9,43.1,31.8,30.9,25.0,20.3,72,52,24,30.27,30.16,13,0,13,0.00
2013-3-10,55.7,41.2,26.1,38.2,30.9,20.2,89,68,45,30.33,30.21,10,1,11,0.00
2013-3-11,59.4,46.4,36.0,48.7,41.6,33.0,96,85,47,30.26,30.00,14,2,14,0.00
2013-3-12,57.4,51.6,41.5,56.3,48.7,35.8,96,90,77,30.00,29.63,27,3,27,0.86
2013-3-13,48.1,40.9,34.6,36.2,30.6,25.0,84,67,49,29.89,29.78,20,4,23,0.00
2013-3-14,41.1,35.1,29.0,25.3,18.8,14.0,80,52,36,29.96,29.85,29,8,33,0.00
2013-3-15,50.5,39.7,27.0,33.7,23.5,14.5,64,52,43,29.98,29.68,22,3,22,0.00
2013-3-16,46.2,36.7,32.5,33.5,30.0,24.7,93,78,59,29.88,29.72,10,0,12,0.03
2013-3-17,38.7,33.4,28.2,31.6,24.8,20.6,93,72,53,30.25,29.87,11,1,14,0.15
2013-3-18,39.3,32.4,27.7,34.1,24.8,14.5,95,74,55,30.33,29.87,17,2,19,0.33
2013-3-19,49.9,40.4,35.2,41.6,33.1,21.0,96,78,41,29.88,29.65,32,4,32,0.42
2013-3-20,46.6,38.3,31.0,25.7,21.7,19.4,69,52,35,29.88,29.74,24,4,26,0.00
2013-3-21,37.9,33.4,28.9,30.7,21.5,14.0,95,64,40,29.79,29.62,21,2,21,0.01
2013-3-22,41.6,33.8,27.5,24.6,21.1,14.8,74,60,47,29.88,29.73,24,6,24,0.00
2013-3-23,47.2,38.2,30.8,26.0,22.6,20.6,68,54,40,29.91,29.82,23,5,23,0.00
2013-3-24,47.2,38.6,27.2,28.4,23.4,19.9,76,55,38,29.93,29.64,15,0,15,0.00
2013-3-25,37.8,35.8,33.7,34.4,31.8,27.6,94,86,68,29.65,29.42,20,2,20,0.28
2013-3-26,51.9,41.8,35.0,36.0,33.2,28.9,94,74,43,29.86,29.58,18,3,18,0.00
2013-3-27,50.9,42.1,33.2,34.2,31.3,27.0,87,67,43,29.98,29.85,27,4,27,0.00
2013-3-28,48.2,42.1,33.3,33.8,30.7,27.8,81,65,50,30.10,29.95,19,2,19,0.00
2013-3-29,52.6,45.3,35.0,33.3,30.7,27.7,75,57,43,30.13,30.04,18,2,18,0.00
2013-3-30,57.4,44.8,29.4,34.6,28.6,25.9,89,57,32,30.15,30.04,17,1,17,0.00
2013-3-31,56.9,45.6,31.7,47.1,37.2,27.8,96,75,44,30.09,29.66,21,1,22,0.15
2013-4-1,61.1,49.0,37.5,46.7,37.8,16.9,96,68,40,29.89,29.61,24,4,31,0.00
2013-4-2,43.9,37.8,31.3,20.3,16.8,14.7,53,42,32,30.07,29.89,27,6,27,0.00
2013-4-3,46.1,37.9,29.0,20.6,16.8,13.1,57,43,30,30.27,30.07,21,2,23,0.00
2013-4-4,52.3,40.2,27.0,29.5,21.8,14.3,65,49,34,30.37,30.04,15,2,16,0.00
2013-4-5,62.9,49.5,39.3,35.6,29.0,21.0,82,49,25,30.05,29.70,21,3,22,0.00
2013-4-6,52.0,42.8,34.1,30.8,22.3,17.8,71,45,28,30.26,29.97,16,1,20,0.00
2013-4-7,62.3,50.1,37.0,45.2,37.7,30.1,79,64,47,30.25,29.94,19,1,19,0.00
2013-4-8,76.0,62.7,47.7,52.0,47.8,42.5,84,60,39,30.03,29.91,15,1,15,0.00
2013-4-9,81.9,71.5,60.3,55.8,52.1,46.8,75,53,30,29.95,29.84,17,0,18,0.00
2013-4-10,86.6,71.6,60.7,60.8,57.0,52.9,95,62,40,29.88,29.72,26,0,26,0.66
2013-4-11,62.6,58.3,48.2,60.5,54.7,43.9,97,88,73,29.92,29.72,14,2,16,0.05
2013-4-12,48.2,44.4,42.5,44.3,42.6,41.2,96,93,85,29.90,29.64,21,3,21,0.53
2013-4-13,58.7,49.3,37.0,44.8,39.4,35.7,97,72,46,29.93,29.70,19,1,19,0.01
2013-4-14,61.1,51.0,36.7,41.9,36.3,29.1,93,60,37,30.12,29.92,20,2,20,0.00
2013-4-15,59.7,51.4,44.9,45.3,38.5,32.8,77,61,53,30.30,30.12,18,2,18,0.00
2013-4-16,70.8,59.1,45.0,59.1,51.0,41.8,91,75,62,30.30,30.06,22,3,25,0.00
2013-4-17,72.3,62.0,53.8,56.8,47.9,37.6,92,64,31,30.23,30.04,13,1,13,0.00
2013-4-18,60.8,55.3,48.8,55.7,50.0,42.3,94,82,71,30.25,30.01,11,1,13,0.00
2013-4-19,76.5,65.8,55.3,66.5,61.4,53.3,98,86,67,30.01,29.56,28,4,28,0.72
2013-4-20,57.1,50.8,45.2,53.2,36.1,27.3,93,60,37,30.27,29.66,24,5,24,0.20
2013-4-21,55.2,44.7,34.0,32.7,27.4,22.8,72,51,33,30.57,30.27,17,1,17,0.00
2013-4-22,52.7,43.6,30.3,39.1,34.2,27.7,93,71,49,30.58,30.40,19,2,19,0.00
2013-4-23,50.5,45.2,41.1,43.9,39.0,34.2,91,79,69,30.41,30.08,13,1,14,0.00
2013-4-24,70.5,56.0,37.6,58.0,48.7,35.5,96,78,61,30.09,29.76,17,3,23,0.00
2013-4-25,63.9,53.5,43.8,57.5,35.3,28.9,83,52,30,30.23,29.83,29,3,30,0.00
2013-4-26,64.5,52.4,39.5,41.0,35.0,30.1,79,54,29,30.37,30.23,15,1,15,0.00
2013-4-27,69.3,54.4,36.4,40.4,36.3,32.2,86,54,31,30.39,30.23,14,0,14,0.00
2013-4-28,69.8,57.3,40.0,48.1,40.1,31.3,90,55,34,30.26,30.13,19,2,19,0.00
2013-4-29,55.4,53.4,50.8,55.4,50.8,42.6,100,91,67,30.17,30.08,10,1,10,0.48
2013-4-30,67.7,57.3,45.3,52.7,45.9,34.2,96,69,35,30.27,30.12,14,2,14,0.02
2013-5-1,67.2,53.5,37.8,46.2,38.8,31.2,92,61,28,30.42,30.27,14,2,15,0.00
2013-5-2,71.8,56.5,38.2,49.7,43.2,36.4,96,65,36,30.41,30.27,12,1,13,0.00
2013-5-3,63.8,54.6,44.0,45.3,41.8,38.2,88,64,40,30.38,30.28,13,2,15,0.00
2013-5-4,68.5,53.9,38.3,49.3,42.8,36.5,96,69,40,30.32,30.16,18,1,23,0.00
2013-5-5,64.3,51.6,38.3,47.2,42.1,35.7,94,72,48,30.23,30.14,14,1,14,0.00
2013-5-6,68.6,54.9,43.0,55.9,49.1,39.9,94,82,61,30.19,30.08,11,1,12,0.00
2013-5-7,71.2,60.5,51.5,62.3,56.3,50.2,96,86,69,30.10,30.00,13,1,14,0.04
2013-5-8,71.2,61.7,57.1,63.3,59.2,55.1,96,92,70,30.00,29.87,11,1,12,0.56
2013-5-9,70.7,61.1,55.0,59.5,56.2,53.9,97,85,62,29.92,29.85,12,0,12,0.38
2013-5-10,81.6,68.4,53.3,62.9,57.6,51.6,97,72,42,29.96,29.84,18,0,20,0.28
2013-5-11,73.2,65.2,61.0,66.8,62.1,58.4,96,90,72,29.88,29.65,16,2,17,0.69
2013-5-12,63.9,58.7,47.3,58.4,43.4,28.5,90,60,33,29.92,29.64,23,3,28,0.02
2013-5-13,54.8,47.7,38.9,36.7,32.5,25.3,86,57,33,30.08,29.93,18,2,18,0.00
2013-5-14,61.1,48.5,33.8,37.1,32.7,29.7,93,59,32,30.12,29.99,18,1,18,0.00
2013-5-15,72.7,61.0,46.9,60.1,51.1,35.5,88,70,58,30.03,29.65,18,1,18,0.00
2013-5-16,80.2,67.4,55.0,65.6,59.6,53.3,96,78,52,29.80,29.67,13,1,14,0.05
2013-5-17,75.1,63.6,52.6,54.3,46.7,41.8,82,56,32,30.14,29.80,15,0,15,0.00
2013-5-18,67.8,58.8,50.8,56.3,52.9,46.8,93,81,64,30.23,30.14,12,0,14,0.02
2013-5-19,61.0,58.6,55.9,59.8,57.4,54.8,97,96,94,30.23,30.11,7,0,8,0.17
2013-5-20,78.4,67.0,57.2,68.9,63.1,56.4,98,88,71,30.12,29.92,13,0,13,0.01
2013-5-21,83.2,73.3,60.1,72.5,67.3,58.7,97,83,66,29.93,29.80,16,2,16,0.00
2013-5-22,85.9,75.5,67.6,74.4,69.5,65.8,96,83,60,29.87,29.76,19,2,19,0.00
2013-5-23,80.2,72.6,66.8,70.2,68.1,64.0,94,86,66,29.84,29.69,18,3,20,0.58
2013-5-24,66.7,54.8,46.0,63.8,51.2,39.4,97,88,72,29.97,29.65,20,2,21,0.28
2013-5-25,60.4,52.9,45.8,42.3,39.0,34.6,85,61,40,30.01,29.92,31,5,32,0.01
2013-5-26,69.6,57.8,47.7,43.9,39.3,35.8,78,52,32,30.16,29.98,24,2,28,0.00
2013-5-27,72.3,58.8,39.0,47.3,42.5,36.8,95,59,34,30.22,30.10,14,0,14,0.00
2013-5-28,64.5,58.5,49.6,62.7,55.0,46.3,96,88,65,30.17,30.06,5,0,6,0.24
2013-5-29,88.3,72.7,58.7,70.8,64.1,57.6,98,78,47,30.07,29.96,18,1,18,0.01
2013-5-30,91.1,80.7,68.5,70.7,66.8,64.1,90,65,43,30.09,30.02,13,0,13,0.00
2013-5-31,91.1,80.3,65.9,72.2,66.0,55.5,93,64,32,30.08,29.95,16,2,16,0.00
2013-6-1,89.5,80.2,69.8,72.9,68.6,65.9,88,69,48,29.97,29.85,16,2,16,0.00
2013-6-2,85.0,79.1,72.8,72.2,69.2,65.0,83,72,61,29.86,29.73,20,3,20,0.00
2013-6-3,82.1,72.2,64.1,71.8,67.9,60.4,96,87,59,29.83,29.74,10,0,10,0.69
2013-6-4,76.8,65.2,55.5,60.3,49.1,44.5,88,58,34,30.07,29.83,15,1,15,0.00
2013-6-5,78.0,64.4,47.3,55.5,49.6,44.1,92,62,38,30.16,30.03,7,0,7,0.00
2013-6-6,74.0,63.0,52.4,62.4,56.8,50.4,96,82,51,30.08,29.92,16,0,16,0.22
2013-6-7,64.8,62.4,60.3,63.9,61.3,58.7,97,97,94,29.92,29.55,15,1,17,3.14
2013-6-8,77.3,68.0,59.2,66.0,62.1,57.8,97,82,66,30.02,29.55,17,1,17,0.01
2013-6-9,81.6,71.2,56.0,63.8,60.4,54.0,96,71,49,30.13,29.82,11,0,13,0.00
2013-6-10,71.5,68.4,65.2,70.6,66.4,62.5,97,94,84,30.09,29.72,17,0,17,1.52
2013-6-11,80.7,73.5,66.3,70.1,66.1,61.0,97,79,63,29.72,29.62,22,2,23,0.04
2013-6-12,81.3,72.7,65.3,62.7,60.4,57.7,82,67,46,29.79,29.70,17,1,21,0.00
2013-6-13,75.8,66.8,58.9,70.7,62.2,57.0,96,86,75,29.79,29.35,17,0,17,0.80
2013-6-14,76.0,62.2,54.1,61.5,55.6,51.8,94,80,57,29.87,29.47,17,1,17,0.08
2013-6-15,80.1,69.2,55.4,62.6,57.2,52.6,94,68,44,29.99,29.87,14,0,14,0.00
2013-6-16,82.0,69.9,56.9,67.4,61.1,54.1,93,75,49,29.95,29.76,19,2,21,0.00
2013-6-17,85.6,74.8,63.2,69.6,66.2,61.4,96,76,54,29.88,29.79,12,0,16,0.00
2013-6-18,77.9,68.7,63.4,72.1,66.3,61.9,97,92,77,29.86,29.75,10,0,11,0.46
2013-6-19,78.5,67.6,58.1,62.5,56.4,51.3,96,71,41,30.11,29.82,12,0,13,0.00
2013-6-20,79.7,68.1,53.2,62.7,56.7,50.9,97,69,49,30.22,30.10,19,0,20,0.00
2013-6-21,82.5,71.1,55.2,61.5,56.3,50.7,92,62,43,30.26,30.17,13,0,13,0.00
2013-6-22,84.3,71.8,55.9,68.5,62.3,53.7,96,73,51,30.21,30.06,14,0,16,0.00
2013-6-23,85.9,73.7,62.1,73.8,67.7,59.6,95,82,60,30.15,30.00,11,0,11,0.01
2013-6-24,90.7,79.0,71.5,74.1,69.9,64.4,95,75,53,30.03,29.93,18,0,18,0.01
2013-6-25,90.5,77.7,66.4,74.7,68.8,63.3,91,75,50,29.95,29.78,17,1,17,0.03
2013-6-26,88.1,76.4,68.5,74.8,68.7,64.3,95,78,58,29.82,29.72,25,1,25,0.50
2013-6-27,87.0,76.4,69.4,75.2,71.4,68.2,97,86,63,29.77,29.50,24,1,27,0.97
2013-6-28,85.2,75.5,69.5,72.0,69.7,66.1,95,83,62,29.53,29.42,15,2,17,0.00
2013-6-29,86.1,76.2,66.5,69.7,66.7,63.9,96,75,49,29.65,29.43,15,1,16,0.00
2013-6-30,83.7,74.1,68.4,76.5,70.8,65.2,96,90,75,29.84,29.65,15,0,15,1.59
2013-7-1,77.5,74.3,69.6,75.2,72.2,68.0,97,93,86,29.96,29.82,18,1,18,0.94
2013-7-2,83.6,77.0,73.5,75.1,72.4,69.8,94,86,70,30.12,29.96,18,2,18,0.00
2013-7-3,86.0,77.5,71.8,76.2,72.5,69.0,94,85,70,30.19,30.11,14,1,14,0.02
2013-7-4,87.9,80.5,74.3,75.6,73.3,70.4,95,80,62,30.20,30.10,16,2,16,0.00
2013-7-5,89.8,81.9,73.3,76.1,73.2,70.9,94,76,56,30.16,30.05,19,2,19,0.00
2013-7-6,92.9,84.0,74.6,76.2,73.7,71.4,93,73,54,30.10,29.98,13,1,14,0.00
2013-7-7,92.2,81.7,71.1,77.5,73.1,69.2,95,76,57,30.03,29.89,21,1,22,0.20
2013-7-8,86.2,76.0,68.9,72.8,69.2,65.3,95,81,60,30.01,29.93,12,0,14,0.00
2013-7-9,85.7,77.5,67.9,73.8,70.8,66.1,96,81,65,30.02,29.93,14,0,15,0.00
2013-7-10,86.6,79.6,72.4,76.3,73.2,70.4,96,82,65,29.96,29.76,16,2,16,0.00
2013-7-11,85.7,78.8,74.8,74.5,71.2,69.2,91,78,61,29.84,29.75,11,1,11,0.01
2013-7-12,76.2,72.0,68.8,69.7,66.3,62.8,96,82,69,29.99,29.86,6,1,12,1.55
2013-7-13,85.9,75.2,68.8,76.8,72.2,67.6,97,91,71,30.23,30.00,3,0,15,0.00
2013-7-14,90.0,82.0,71.7,76.4,73.3,70.8,98,76,58,30.30,30.19,11,1,13,0.01
2013-7-15,94.0,83.1,71.3,77.2,73.8,68.2,92,75,55,30.22,30.08,13,1,13,0.00
2013-7-16,93.9,83.6,74.2,74.6,71.7,69.3,91,70,49,30.16,30.08,13,0,14,0.00
2013-7-17,96.1,83.7,71.0,75.3,71.6,68.9,93,70,43,30.14,30.01,7,0,7,0.00
2013-7-18,96.3,86.3,75.7,78.8,74.7,70.9,87,70,47,30.03,29.91,7,0,9,0.00
2013-7-19,95.0,87.0,79.7,80.4,77.7,75.0,92,75,56,29.94,29.75,14,2,15,0.00
2013-7-20,90.7,83.1,76.4,76.8,72.9,68.9,83,72,60,29.79,29.69,18,2,18,0.00
2013-7-21,88.3,78.6,72.1,75.7,71.9,69.2,93,80,60,29.89,29.78,8,0,9,0.07
2013-7-22,85.3,75.9,71.2,78.0,72.4,69.6,96,89,71,29.89,29.72,10,0,11,0.84
2013-7-23,83.7,76.3,70.5,76.1,71.9,69.2,97,87,68,29.72,29.53,14,1,15,0.84
2013-7-24,80.8,74.3,64.9,69.6,65.3,54.9,89,74,55,29.89,29.58,11,0,13,0.00
2013-7-25,70.3,65.0,59.8,61.1,56.9,53.0,83,75,66,30.00,29.87,13,1,13,0.00
2013-7-26,65.0,63.3,61.4,60.0,59.3,58.6,91,87,83,29.98,29.96,0,0,0,0.00
2013-7-27,84.5,73.7,58.6,70.7,63.9,56.9,97,73,55,30.00,29.87,13,0,13,0.00
2013-7-28,80.5,71.6,66.7,74.1,68.0,63.1,96,89,76,29.92,29.82,15,0,15,0.44
2013-7-29,81.5,72.4,63.2,67.0,62.1,55.0,97,73,43,30.07,29.90,20,1,20,0.02
2013-7-30,80.3,69.1,57.0,62.6,59.1,55.0,95,72,50,30.14,30.06,18,0,18,0.00
2013-7-31,83.7,71.3,57.3,66.9,61.7,55.9,97,74,48,30.12,29.98,8,0,8,0.00
2013-8-1,71.9,68.7,65.8,70.5,66.3,62.5,97,92,81,29.98,29.77,9,0,10,1.20
2013-8-2,83.2,74.2,63.9,69.0,65.2,60.1,97,76,50,29.88,29.76,19,1,19,0.01
2013-8-3,76.3,70.5,64.3,68.2,64.7,60.5,93,82,69,29.88,29.82,10,0,11,0.04
2013-8-4,78.2,69.0,59.1,63.6,59.8,55.3,97,75,47,29.95,29.81,14,1,16,0.01
2013-8-5,77.1,66.4,53.6,59.0,54.8,50.8,94,69,45,30.04,29.95,15,0,15,0.00
2013-8-6,79.8,66.6,54.2,65.2,59.3,52.5,97,79,50,30.06,29.99,16,0,18,0.00
2013-8-7,76.0,70.0,65.1,69.6,66.7,62.4,95,89,77,30.07,29.99,14,0,15,0.02
2013-8-8,84.7,76.0,69.1,77.3,71.6,67.6,97,87,70,30.00,29.92,16,2,16,0.39
2013-8-9,83.6,78.0,74.2,77.8,74.0,71.4,94,88,76,29.95,29.76,17,2,21,0.29
2013-8-10,82.7,75.6,67.1,73.6,67.1,63.7,94,76,56,30.00,29.83,12,0,12,0.00
2013-8-11,85.0,72.8,59.1,68.2,62.9,57.4,95,73,52,30.08,29.96,10,0,11,0.00
2013-8-12,85.0,74.8,68.8,70.3,68.1,65.4,96,81,53,29.98,29.87,8,0,9,0.03
2013-8-13,80.9,72.4,65.5,71.3,68.3,64.2,97,88,67,29.87,29.65,10,0,10,1.88
2013-8-14,73.0,65.8,55.5,67.9,55.0,49.7,91,69,53,30.02,29.72,19,2,19,0.00
2013-8-15,77.7,64.3,50.2,57.4,53.1,48.7,97,71,40,30.11,30.02,9,0,11,0.00
2013-8-16,80.6,66.7,51.3,62.8,55.4,49.9,97,71,42,30.15,30.08,6,0,7,0.00
2013-8-17,82.2,68.3,54.0,64.6,57.9,52.6,97,72,44,30.22,30.15,6,0,7,0.00
2013-8-18,76.0,67.3,61.5,64.9,61.6,57.9,94,83,58,30.20,30.09,4,0,5,0.02
2013-8-19,76.4,68.5,61.3,67.8,63.3,59.7,96,84,69,30.10,30.00,10,0,10,0.00
2013-8-20,86.8,73.6,61.9,71.1,65.8,60.4,97,79,52,30.09,30.01,10,0,12,0.00
2013-8-21,87.5,76.1,62.1,71.0,66.1,59.2,96,74,45,30.14,30.00,10,0,11,0.00
2013-8-22,81.5,75.3,72.4,74.4,71.3,69.1,96,88,74,30.02,29.83,12,0,13,0.30
2013-8-23,77.9,71.2,61.8,69.1,64.2,58.7,93,79,58,30.05,29.85,11,0,14,0.01
2013-8-24,80.3,68.2,56.1,60.4,56.1,52.1,92,68,40,30.30,30.05,11,0,11,0.00
2013-8-25,80.7,66.8,51.8,62.9,56.0,50.3,97,72,43,30.36,30.20,12,0,12,0.00
2013-8-26,84.8,73.4,63.5,69.2,63.1,57.0,83,71,56,30.21,29.88,15,2,15,0.03
2013-8-27,88.0,77.5,70.0,70.8,68.2,66.3,91,75,52,29.88,29.81,13,0,13,0.02
2013-8-28,73.7,70.9,66.9,72.1,69.4,65.2,97,95,91,29.84,29.77,7,0,8,0.83
2013-8-29,80.2,73.2,68.8,71.5,69.4,65.3,97,88,70,29.98,29.82,9,0,9,0.00
2013-8-30,81.8,73.9,67.1,73.1,68.9,64.6,94,85,73,29.98,29.82,13,2,14,0.00
2013-8-31,89.8,78.6,70.6,77.5,72.1,68.3,94,81,64,29.83,29.74,12,1,13,0.01
2013-9-1,90.4,79.2,72.6,77.3,72.3,69.6,95,80,58,29.80,29.71,4,0,4,0.13
2013-9-2,81.0,74.5,70.7,75.3,71.5,68.9,96,91,75,29.74,29.65,6,0,6,0.55
2013-9-3,80.8,72.7,65.8,70.8,64.8,57.7,97,78,51,29.86,29.65,12,1,12,0.00
2013-9-4,79.5,68.9,59.5,61.6,58.8,55.9,90,72,51,29.98,29.85,11,1,14,0.00
2013-9-5,76.6,67.0,55.2,64.4,56.7,48.8,88,71,43,30.10,29.91,16,0,16,0.00
2013-9-6,71.3,59.1,49.0,50.8,47.3,42.3,92,68,36,30.22,30.09,10,0,10,0.00
2013-9-7,77.8,61.8,45.6,59.5,51.1,44.3,97,72,39,30.10,29.87,10,0,12,0.00
2013-9-8,80.7,69.7,57.6,67.3,60.0,48.4,89,72,54,30.03,29.80,11,0,13,0.00
2013-9-9,74.4,62.8,47.4,62.4,55.0,45.2,93,77,57,30.18,30.03,7,0,7,0.00
2013-9-10,85.5,76.0,66.4,74.8,70.0,62.0,92,82,69,30.13,30.01,12,1,13,0.00
2013-9-11,91.7,81.4,72.7,78.5,73.7,70.8,95,79,60,30.07,29.93,13,1,14,0.00
2013-9-12,86.6,76.4,69.0,75.1,71.2,67.4,95,85,66,29.94,29.65,21,2,21,0.24
2013-9-13,74.9,67.2,57.3,67.9,60.4,50.7,96,80,56,29.84,29.60,16,0,18,0.06
2013-9-14,62.9,55.9,45.5,50.9,48.1,43.1,92,76,62,30.11,29.84,16,1,16,0.00
2013-9-15,72.0,56.8,41.9,55.5,48.9,40.6,97,77,50,30.19,30.04,10,0,11,0.00
2013-9-16,70.3,61.1,54.8,60.0,55.2,49.5,96,82,60,30.19,29.99,12,0,14,0.07
2013-9-17,64.7,53.8,43.6,49.1,44.0,41.3,92,71,44,30.38,30.19,12,0,14,0.00
2013-9-18,71.2,53.8,38.6,51.9,44.7,37.2,97,75,42,30.31,30.15,9,0,9,0.00
2013-9-19,75.3,58.4,42.9,57.0,50.4,41.6,97,78,46,30.16,30.03,11,0,11,0.00
2013-9-20,78.7,62.6,48.5,63.5,55.4,47.1,97,80,51,30.04,29.92,9,0,11,0.00
2013-9-21,78.4,64.7,48.2,66.3,57.9,46.8,100,81,48,29.96,29.63,16,1,16,0.91
2013-9-22,67.2,61.1,51.8,61.1,52.6,44.2,96,75,51,29.88,29.62,14,1,14,0.30
2013-9-23,65.7,54.9,43.8,49.0,44.8,40.3,90,70,51,30.01,29.88,14,1,14,0.00
2013-9-24,72.8,55.6,41.7,52.7,46.3,39.3,93,73,43,30.04,29.86,11,0,12,0.00
2013-9-25,72.1,55.9,42.7,54.7,47.6,41.0,96,76,43,29.92,29.83,6,0,7,0.00
2013-9-26,72.3,57.9,45.9,59.5,52.6,44.6,98,84,59,30.04,29.89,7,0,7,0.00
2013-9-27,68.8,59.8,51.9,57.2,53.7,49.6,96,82,58,30.22,30.04,6,0,7,0.00
2013-9-28,72.1,60.7,50.1,56.4,53.0,47.9,95,78,49,30.27,30.18,9,0,11,0.00
2013-9-29,71.0,57.1,45.6,59.3,51.4,44.3,97,83,58,30.19,30.02,9,0,9,0.00
2013-9-30,73.2,57.3,44.5,57.9,50.5,43.2,97,80,48,30.04,29.94,6,0,6,0.01
2013-10-1,79.6,62.7,49.0,64.0,55.8,47.6,97,80,52,29.98,29.88,11,0,11,0.00
2013-10-2,82.8,67.3,54.2,64.6,59.6,52.8,97,79,51,29.98,29.89,14,1,14,0.00
2013-10-3,80.3,67.3,54.3,64.6,59.9,52.9,97,79,54,30.08,29.98,4,0,4,0.00
2013-10-4,85.3,70.5,57.9,68.5,63.3,56.5,97,80,54,30.02,29.93,11,0,11,0.00
2013-10-5,83.1,71.4,61.8,69.9,65.9,60.2,96,84,63,30.03,29.94,4,0,4,0.00
2013-10-6,78.0,68.2,64.4,70.7,65.8,63.0,97,92,77,30.01,29.92,6,0,7,0.15
2013-10-7,75.3,64.8,55.8,72.5,62.8,48.6,97,93,75,29.96,29.69,21,1,22,0.54
2013-10-8,65.7,54.6,45.1,51.2,47.9,43.5,96,80,55,30.27,29.95,12,1,13,0.00
2013-10-9,60.8,54.2,47.5,51.3,47.9,43.1,95,79,68,30.32,30.20,14,1,14,0.00
2013-10-10,58.8,55.2,51.1,56.1,52.3,48.4,95,90,79,30.20,29.97,13,2,13,0.19
2013-10-11,62.9,60.1,57.0,61.4,58.0,54.9,96,93,88,30.01,29.93,19,2,19,1.30
2013-10-12,69.8,63.4,57.8,59.4,54.2,45.4,92,73,52,30.18,29.99,17,2,17,0.00
2013-10-13,66.0,59.1,47.5,55.6,51.9,45.5,93,78,57,30.32,30.18,15,1,15,0.00
2013-10-14,69.2,54.0,43.1,54.8,48.6,41.8,97,84,55,30.31,30.18,6,0,6,0.00
2013-10-15,72.0,55.1,42.8,57.9,48.0,41.5,97,79,46,30.21,30.06,7,0,7,0.00
2013-10-16,66.5,58.3,47.8,59.8,55.0,45.4,95,89,77,30.06,29.87,4,0,4,0.00
2013-10-17,72.0,64.8,58.2,63.6,61.2,56.5,96,89,73,29.88,29.65,16,0,16,0.07
2013-10-18,65.6,57.5,43.8,62.6,47.2,41.0,90,69,52,29.95,29.66,18,1,18,0.00
2013-10-19,63.7,51.5,39.4,55.2,46.2,37.8,96,83,59,29.95,29.72,14,0,14,0.09
2013-10-20,61.7,51.3,40.4,52.3,41.4,37.3,93,71,42,30.03,29.75,15,0,17,0.00
2013-10-21,65.8,50.4,36.2,47.0,40.4,34.6,97,72,41,30.11,29.93,13,0,14,0.00
2013-10-22,63.2,51.7,42.2,52.8,45.2,34.5,97,80,59,29.93,29.74,14,0,14,0.01
2013-10-23,56.1,46.7,39.6,44.1,38.2,34.1,86,73,58,29.78,29.57,12,0,12,0.00
2013-10-24,51.7,43.6,37.3,37.3,33.3,29.6,87,68,45,30.01,29.75,17,1,18,0.00
2013-10-25,53.7,43.4,35.2,38.1,33.5,29.9,84,69,47,30.21,30.00,17,1,17,0.00
2013-10-26,55.1,44.5,31.3,36.0,32.7,28.0,90,65,43,30.21,29.86,20,2,23,0.00
2013-10-27,56.6,48.3,36.8,38.3,34.4,31.7,82,59,46,30.10,29.84,19,1,19,0.00
2013-10-28,61.8,44.0,31.0,40.6,35.1,28.8,95,74,44,30.26,30.09,11,0,12,0.00
2013-10-29,59.2,45.5,34.9,43.5,37.8,31.5,94,76,49,30.36,30.26,8,0,9,0.00
2013-10-30,58.5,48.5,37.2,52.7,45.2,35.3,95,89,80,30.31,30.14,7,0,9,0.00
2013-10-31,67.9,59.0,47.0,61.6,55.5,45.4,97,88,75,30.17,29.73,16,1,16,0.04
2013-11-1,69.2,63.7,50.8,63.9,58.6,48.9,94,84,66,29.74,29.51,32,3,32,0.44
2013-11-2,67.3,55.6,46.3,54.0,46.9,40.5,97,75,51,29.76,29.58,11,0,11,0.00
2013-11-3,51.4,45.0,33.6,42.7,33.7,22.1,84,65,43,30.42,29.76,17,1,17,0.00
2013-11-4,46.5,36.2,28.8,26.6,22.7,18.5,86,60,34,30.61,30.42,14,0,14,0.00
2013-11-5,56.5,44.1,29.3,44.0,36.7,25.6,92,76,59,30.60,30.43,7,0,7,0.00
2013-11-6,65.5,53.9,42.2,53.7,47.3,39.3,93,79,59,30.45,30.01,13,1,14,0.00
2013-11-7,60.7,53.2,38.2,56.8,49.4,34.5,93,87,72,30.01,29.74,18,1,18,0.08
2013-11-8,48.9,42.3,36.7,36.6,30.9,27.6,76,64,50,30.22,29.93,21,2,23,0.00
2013-11-9,50.4,41.6,30.0,36.6,30.6,25.8,85,66,44,30.27,29.95,11,1,11,0.00
2013-11-10,59.2,47.8,37.0,40.0,33.5,29.3,84,59,41,30.07,29.83,28,2,28,0.00
2013-11-11,53.4,47.2,34.6,37.6,32.9,27.7,78,58,48,30.20,29.93,16,1,17,0.00
2013-11-12,50.3,37.2,25.8,38.4,25.6,17.4,84,63,49,30.29,29.90,20,2,21,0.00
2013-11-13,40.0,32.2,25.7,22.1,18.0,14.5,70,56,41,30.37,30.27,19,2,20,0.00
2013-11-14,53.9,40.4,29.4,26.3,21.1,16.3,72,49,23,30.27,30.15,16,2,18,0.00
2013-11-15,58.3,40.9,28.2,35.9,29.6,23.9,90,67,30,30.22,30.12,5,0,5,0.00
2013-11-16,59.7,48.7,39.0,47.5,43.8,33.7,94,84,62,30.29,30.20,6,0,7,0.05
2013-11-17,65.6,57.1,49.1,58.8,53.1,47.0,94,87,75,30.21,29.72,10,1,12,0.00
2013-11-18,64.7,59.0,48.6,60.9,41.7,27.8,94,56,31,29.80,29.58,24,2,25,0.14
2013-11-19,48.5,42.0,29.0,30.0,26.9,22.5,78,55,45,30.32,29.79,25,3,25,0.00
2013-11-20,45.6,33.7,24.4,24.3,19.4,9.8,79,58,26,30.56,30.32,6,0,10,0.00
2013-11-21,51.9,40.4,23.3,41.9,30.9,16.8,80,69,58,30.56,30.35,4,0,7,0.00
2013-11-22,57.1,51.6,47.5,50.4,47.3,41.6,93,86,76,30.35,29.90,11,1,14,0.01
2013-11-23,52.1,41.2,29.8,48.8,28.6,13.0,91,61,44,30.04,29.91,25,4,25,0.00
2013-11-24,29.8,25.0,22.1,12.9,6.6,4.3,50,45,38,30.21,30.04,25,6,27,0.00
2013-11-25,34.9,27.8,20.6,19.8,14.9,8.3,73,58,45,30.48,30.30,5,1,10,0.00
2013-11-26,47.7,36.3,32.4,46.6,31.3,19.8,96,83,58,30.30,29.63,5,0,7,0.75
2013-11-27,61.4,43.2,31.8,60.4,40.0,22.4,97,89,64,29.79,29.36,25,4,25,1.76
2013-11-28,36.2,31.2,28.2,22.4,18.8,15.7,70,60,46,30.44,29.79,25,4,25,0.00
2013-11-29,39.7,32.7,21.9,32.9,24.2,17.6,91,72,50,30.69,29.55,13,2,15,0.00
2013-11-30,38.6,29.1,17.6,28.9,22.3,14.4,87,76,66,30.70,30.34,8,0,9,0.00
2013-12-1,47.8,37.4,25.6,33.7,30.0,23.3,94,76,54,30.34,29.98,9,0,9,0.00
2013-12-2,50.5,40.4,34.5,36.7,33.2,30.7,89,76,56,29.98,29.83,5,0,5,0.00
2013-12-3,53.5,41.7,32.1,41.6,35.5,29.5,91,80,54,29.97,29.84,8,0,8,0.00
2013-12-4,51.9,42.2,31.5,44.2,37.9,29.2,95,85,71,30.07,29.96,4,0,4,0.00
2013-12-5,58.6,52.4,46.7,57.7,50.9,44.2,97,95,90,30.06,29.87,9,0,9,0.00
2013-12-6,61.2,47.6,36.6,60.3,45.9,35.0,97,94,86,30.11,29.82,15,1,15,0.81
2013-12-7,39.4,34.6,27.6,36.5,30.1,22.9,100,84,70,30.48,30.03,14,1,16,0.08
2013-12-8,30.2,27.5,25.1,28.2,22.8,18.8,100,83,70,30.55,30.29,7,0,9,0.00
2013-12-9,35.6,33.6,29.4,34.5,32.6,27.9,100,96,94,30.29,29.95,8,0,10,0.53
2013-12-10,33.5,31.0,24.2,32.5,28.8,19.5,96,91,80,30.13,29.87,11,0,11,0.06
2013-12-11,32.5,24.6,13.5,21.0,17.9,10.9,92,76,56,30.33,30.13,10,1,14,0.04
2013-12-12,27.4,22.5,16.6,21.0,13.6,8.7,92,69,47,30.35,30.14,13,0,15,0.03
2013-12-13,35.8,27.8,18.4,21.3,15.6,8.6,82,60,49,30.30,30.11,16,2,16,0.03
2013-12-14,31.0,27.7,25.4,29.7,24.1,21.1,99,86,74,30.39,29.66,20,1,20,0.00
2013-12-15,38.2,33.0,27.8,34.8,28.7,22.8,95,85,67,29.83,29.51,18,1,22,0.46
2013-12-16,31.5,25.2,15.6,24.0,14.1,10.8,84,63,46,30.20,29.82,19,2,24,0.00
2013-12-17,29.0,24.2,18.9,26.3,21.1,16.7,92,88,78,30.17,29.91,5,0,5,0.01
2013-12-18,36.6,28.2,17.7,25.4,21.2,15.2,98,76,59,30.16,29.91,19,1,19,0.04
2013-12-19,46.1,33.2,18.3,32.5,25.6,15.9,96,75,54,30.17,30.00,7,0,8,0.13
2013-12-20,52.1,40.9,29.3,43.4,33.3,27.1,93,76,52,30.06,29.93,10,1,10,0.00
2013-12-21,64.4,51.7,36.4,57.1,46.8,34.5,96,84,70,29.97,29.85,18,2,18,0.00
2013-12-22,67.0,63.5,60.2,62.7,59.5,56.5,92,87,82,29.91,29.75,27,4,27,0.10
2013-12-23,60.4,54.0,40.6,58.8,51.2,32.5,96,90,72,30.12,29.86,16,1,17,0.57
2013-12-24,40.6,33.9,26.1,32.8,23.8,15.2,77,66,57,30.35,30.08,20,3,21,0.00
2013-12-25,26.0,20.8,18.8,15.6,10.8,9.1,71,65,57,30.49,30.34,15,1,17,0.00
2013-12-26,19.3,19.3,19.3,9.5,9.5,9.5,65,65,65,30.49,30.49,1,1,0,0.00
2013-12-27,19.3,19.3,19.3,9.5,9.5,9.5,65,65,65,30.49,30.49,1,1,0,0.00
2013-12-28,19.3,19.3,19.3,9.5,9.5,9.5,65,65,65,30.49,30.49,1,1,0,0.00
2013-12-29,19.3,19.3,19.3,9.5,9.5,9.5,65,65,65,30.49,30.49,1,1,0,0.00
2013-12-30,19.3,19.3,19.3,9.5,9.5,9.5,65,65,65,30.49,30.49,1,1,0,0.00
2013-12-31,19.3,19.3,19.3,9.5,9.5,9.5,65,65,65,30.49,30.49,1,1,0,0.00
2014-1-1,19.3,19.3,19.3,9.5,9.5,9.5,65,65,65,30.49,30.49,1,1,0,0.00
2014-1-2,27.5,21.9,19.3,24.0,16.4,9.5,92,80,65,30.49,29.59,15,1,15,0.00